Time;durP1;ratioP1;P1;durP2;ratioP2;P2;SDS_P1;SDS_P2;PMS_P1;PMS_P2;Temp;Humidity;BMP_temperature;BMP_pressure;BME280_temperature;BME280_humidity;BME280_pressure;Samples;Min_cycle;Max_cycle;Signal;HPM_P1;HPM_P2
2022/06/08 00:00:16;;;;;;;1.50;1.40;;;;;;;21.12;56.62;99623.47;4947527;28;20054;-86
2022/06/08 00:02:46;;;;;;;3.90;1.30;;;;;;;21.09;56.91;99618.47;4962040;28;20059;-87
2022/06/08 00:05:13;;;;;;;1.65;1.45;;;;;;;21.07;56.70;99612.47;4960196;28;20146;-79
2022/06/08 00:07:40;;;;;;;1.55;1.33;;;;;;;21.02;56.67;99605.81;4945831;28;20054;-81
2022/06/08 00:10:07;;;;;;;2.50;1.50;;;;;;;21.00;56.64;99604.38;4950152;28;20062;-79
2022/06/08 00:12:34;;;;;;;5.18;1.42;;;;;;;20.97;56.57;99608.31;4946957;28;20043;-79
2022/06/08 00:15:03;;;;;;;1.90;1.40;;;;;;;20.96;56.61;99608.50;4948895;28;20054;-79
2022/06/08 00:17:29;;;;;;;2.15;1.60;;;;;;;20.93;56.91;99608.94;4933054;28;20451;-80
2022/06/08 00:19:56;;;;;;;3.08;1.50;;;;;;;20.91;56.55;99611.84;4970309;28;20129;-79
2022/06/08 00:22:23;;;;;;;3.88;1.58;;;;;;;20.89;56.64;99607.69;4947924;28;20050;-80
2022/06/08 00:24:50;;;;;;;4.32;1.58;;;;;;;20.87;56.86;99607.91;4947183;28;20129;-79
2022/06/08 00:27:17;;;;;;;3.85;1.50;;;;;;;20.85;56.82;99606.47;4966675;28;20356;-79
2022/06/08 00:29:44;;;;;;;1.67;1.40;;;;;;;20.85;56.89;99606.47;4955877;28;20545;-80
2022/06/08 00:32:11;;;;;;;3.65;1.60;;;;;;;20.83;56.97;99606.66;4947657;28;20071;-80
2022/06/08 00:34:39;;;;;;;2.45;1.60;;;;;;;20.80;56.84;99597.09;4981198;28;20107;-80
2022/06/08 00:37:05;;;;;;;3.53;1.65;;;;;;;20.81;56.91;99600.63;4950989;28;20530;-79
2022/06/08 00:39:33;;;;;;;2.22;1.73;;;;;;;20.80;56.87;99585.50;4970154;28;20759;-79
2022/06/08 00:42:05;;;;;;;3.10;1.98;;;;;;;20.80;57.27;99590.88;4948488;28;20050;-79
2022/06/08 00:44:43;;;;;;;2.97;1.60;;;;;;;20.81;57.03;99589.84;4964683;28;20486;-79
2022/06/08 00:47:18;;;;;;;3.05;1.77;;;;;;;20.80;56.78;99572.81;4980082;28;20129;-80
2022/06/08 00:49:55;;;;;;;3.15;1.80;;;;;;;20.75;56.98;99575.31;4946247;28;20043;-79
2022/06/08 00:52:22;;;;;;;2.17;2.00;;;;;;;20.76;56.55;99576.13;4953494;28;20130;-80
2022/06/08 00:54:56;;;;;;;2.42;1.50;;;;;;;20.72;56.90;99588.41;4967036;28;20066;-80
2022/06/08 00:57:26;;;;;;;1.45;1.35;;;;;;;20.71;56.79;99586.72;4949254;28;20038;-79
2022/06/08 00:59:58;;;;;;;2.15;1.60;;;;;;;20.68;56.75;99585.28;4945139;28;20179;-80
2022/06/08 01:02:25;;;;;;;2.50;1.60;;;;;;;20.65;56.69;99580.28;4965113;28;20043;-80
2022/06/08 01:05:28;;;;;;;2.80;1.92;;;;;;;20.58;56.70;99580.31;4914469;28;20060;-80
2022/06/08 01:08:00;;;;;;;2.10;1.90;;;;;;;20.56;56.58;99587.78;4934913;28;20051;-79
2022/06/08 01:10:44;;;;;;;6.03;2.00;;;;;;;20.49;56.66;99581.50;4948360;28;20042;-80
2022/06/08 01:13:11;;;;;;;3.03;1.98;;;;;;;20.47;56.55;99578.19;4940298;28;20047;-79
2022/06/08 01:15:40;;;;;;;2.42;1.52;;;;;;;20.43;56.50;99574.25;4942149;28;20061;-88
2022/06/08 01:18:09;;;;;;;3.83;1.83;;;;;;;20.40;56.75;99580.03;4944982;28;20137;-88
2022/06/08 01:20:47;;;;;;;2.75;1.95;;;;;;;20.39;56.76;99578.38;4965675;28;20043;-88
2022/06/08 01:23:16;;;;;;;3.42;1.80;;;;;;;20.38;56.47;99576.75;4942545;28;20054;-88
2022/06/08 01:26:01;;;;;;;3.83;2.08;;;;;;;20.32;57.00;99583.75;4940303;28;20391;-88
2022/06/08 01:28:36;;;;;;;1.73;1.50;;;;;;;20.34;56.85;99570.91;4956957;28;20095;-89
2022/06/08 01:31:14;;;;;;;3.00;1.80;;;;;;;20.30;56.57;99566.97;4914368;28;20042;-88
2022/06/08 01:33:50;;;;;;;1.80;1.70;;;;;;;20.29;56.72;99564.47;4974631;28;20054;-87
2022/06/08 01:36:35;;;;;;;2.90;1.65;;;;;;;20.30;56.54;99566.13;4943808;28;20506;-88
2022/06/08 01:39:14;;;;;;;2.17;1.60;;;;;;;20.29;56.41;99569.88;4958472;28;20502;-84
2022/06/08 01:41:57;;;;;;;2.90;1.90;;;;;;;20.23;56.60;99565.31;4936063;28;20046;-88
2022/06/08 01:44:40;;;;;;;2.92;1.83;;;;;;;20.21;56.61;99557.41;4924445;28;20058;-79
2022/06/08 01:47:12;;;;;;;;;;;;;;;20.17;56.86;99562.41;4952637;28;20054;-79
2022/06/08 01:49:49;;;;;;;2.95;1.40;;;;;;;20.19;56.33;99555.97;4979475;28;19922;-79
2022/06/08 01:52:51;;;;;;;3.17;1.60;;;;;;;20.14;56.31;99551.19;4960374;28;20051;-79
2022/06/08 01:55:58;;;;;;;1.67;1.58;;;;;;;20.03;56.93;99544.53;4911584;28;20043;-79
2022/06/08 01:58:37;;;;;;;1.73;1.48;;;;;;;19.99;56.60;99548.66;4923827;28;20049;-79
2022/06/08 02:01:13;;;;;;;2.50;1.63;;;;;;;19.96;56.54;99549.06;4970148;28;20141;-79
2022/06/08 02:03:51;;;;;;;2.90;1.50;;;;;;;19.92;56.73;99551.34;4946493;28;20051;-79
2022/06/08 02:06:33;;;;;;;4.50;1.25;;;;;;;19.88;56.71;99551.97;4963129;28;20509;-80
2022/06/08 02:09:09;;;;;;;3.50;1.40;;;;;;;19.86;57.06;99554.84;4926377;28;20050;-79
2022/06/08 02:11:48;;;;;;;3.63;1.50;;;;;;;19.84;56.87;99546.13;4976304;28;20109;-79
2022/06/08 02:14:23;;;;;;;4.20;1.52;;;;;;;19.87;56.81;99552.97;4979662;28;20399;-80
2022/06/08 02:16:54;;;;;;;2.38;1.50;;;;;;;19.88;56.42;99546.56;4962366;28;20053;-80
2022/06/08 02:19:33;;;;;;;3.85;1.90;;;;;;;19.90;56.87;99542.66;4969502;28;20058;-79
2022/06/08 02:22:20;;;;;;;1.67;1.58;;;;;;;19.91;56.84;99538.91;4959901;28;20101;-80
2022/06/08 02:24:52;;;;;;;2.90;1.90;;;;;;;19.91;56.91;99540.78;4942367;28;20058;-80
2022/06/08 02:27:20;;;;;;;1.90;1.40;;;;;;;19.87;56.77;99531.41;4948136;28;20066;-80
2022/06/08 02:29:53;;;;;;;2.40;1.75;;;;;;;19.85;56.75;99526.25;4951668;28;20050;-79
2022/06/08 02:35:31;;;;;;;3.03;1.70;;;;;;;19.82;56.74;99521.28;4940646;28;20042;-79
2022/06/08 02:38:05;;;;;;;4.80;1.80;;;;;;;19.81;56.67;99525.00;4967456;28;20546;-79
2022/06/08 02:40:34;;;;;;;3.60;1.67;;;;;;;19.80;56.77;99522.50;4930428;28;20491;-79
2022/06/08 02:43:15;;;;;;;2.22;1.80;;;;;;;19.78;56.74;99525.41;4926564;28;20137;-79
2022/06/08 02:45:44;;;;;;;4.15;2.00;;;;;;;19.79;56.65;99526.22;4971243;28;20681;-80
2022/06/08 02:48:13;;;;;;;5.07;1.70;;;;;;;19.76;56.71;99529.34;4974954;28;20113;-80
2022/06/08 02:50:50;;;;;;;2.83;1.92;;;;;;;19.71;56.84;99525.38;4945055;28;20038;-79
2022/06/08 02:53:17;;;;;;;5.82;1.80;;;;;;;19.70;56.19;99529.09;4951876;28;20043;-80
2022/06/08 02:56:08;;;;;;;3.47;1.60;;;;;;;19.63;56.77;99532.78;4965508;28;20505;-79
2022/06/08 02:58:44;;;;;;;3.92;2.20;;;;;;;19.63;56.73;99525.53;4916151;28;20047;-79
2022/06/08 03:01:20;;;;;;;7.05;1.70;;;;;;;19.61;57.03;99519.50;4958013;28;20046;-79
2022/06/08 03:03:51;;;;;;;3.88;1.52;;;;;;;19.62;57.06;99517.66;4940389;28;20134;-80
2022/06/08 03:06:29;;;;;;;2.72;1.60;;;;;;;19.58;57.26;99519.09;4929675;28;20046;-80
2022/06/08 03:08:59;;;;;;;7.47;2.15;;;;;;;19.59;57.22;99521.59;4959170;28;20405;-87
2022/06/08 03:11:32;;;;;;;2.00;1.80;;;;;;;19.55;57.52;99512.25;4941191;28;20509;-87
2022/06/08 03:14:00;;;;;;;;;;;;;;;19.54;57.92;99526.75;4947197;28;20434;-86
2022/06/08 03:16:36;;;;;;;3.53;2.83;;;;;;;19.59;57.33;99521.59;4963897;28;20301;-87
2022/06/08 03:19:09;;;;;;;6.55;2.58;;;;;;;19.60;57.64;99517.84;4944327;28;20074;-86
2022/06/08 03:21:38;;;;;;;5.38;2.75;;;;;;;19.61;57.76;99516.00;4944713;28;20465;-87
2022/06/08 03:24:07;;;;;;;10.48;3.25;;;;;;;19.56;57.95;99515.75;4944972;28;20047;-87
2022/06/08 03:26:44;;;;;;;8.13;4.15;;;;;;;19.55;58.17;99514.13;4953061;28;20047;-85
2022/06/08 03:29:13;;;;;;;11.90;6.88;;;;;;;19.53;58.42;99507.03;4955288;28;20055;-85
2022/06/08 03:31:39;;;;;;;13.73;7.60;;;;;;;19.52;58.42;99509.97;4949659;28;20078;-85
2022/06/08 03:34:06;;;;;;;6.43;4.50;;;;;;;19.52;58.71;99508.09;4961717;28;20051;-84
2022/06/08 03:36:34;;;;;;;6.00;3.90;;;;;;;19.53;58.57;99509.75;4951869;28;20054;-84
2022/06/08 03:39:01;;;;;;;9.32;4.30;;;;;;;19.52;58.75;99512.66;4935894;28;20053;-85
2022/06/08 03:41:31;;;;;;;9.23;4.65;;;;;;;19.51;58.82;99505.59;4953761;28;20489;-85
2022/06/08 03:43:59;;;;;;;6.55;4.07;;;;;;;19.50;59.08;99509.31;4920074;28;23782;-85
2022/06/08 03:46:27;;;;;;;6.32;4.80;;;;;;;19.48;59.11;99508.69;4954336;28;20049;-85
2022/06/08 03:48:57;;;;;;;6.90;4.65;;;;;;;19.47;59.21;99505.19;4961529;28;20078;-84
2022/06/08 03:51:24;;;;;;;6.72;4.45;;;;;;;19.47;59.23;99502.47;4917258;28;20043;-84
2022/06/08 03:54:11;;;;;;;7.55;4.75;;;;;;;19.46;59.79;99499.97;4929277;28;20051;-85
2022/06/08 03:56:40;;;;;;;5.80;4.25;;;;;;;19.49;59.41;99499.59;4918839;28;20506;-84
2022/06/08 03:59:07;;;;;;;9.07;4.72;;;;;;;19.47;58.85;99493.56;4954689;28;20043;-85
2022/06/08 04:01:34;;;;;;;7.40;4.13;;;;;;;19.44;59.35;99492.13;4973775;28;20521;-85
2022/06/08 04:04:06;;;;;;;7.43;4.15;;;;;;;19.38;59.69;99500.97;4970807;28;20054;-86
2022/06/08 04:06:34;;;;;;;6.97;4.15;;;;;;;19.39;59.19;99504.53;4944432;28;20462;-79
2022/06/08 04:09:03;;;;;;;4.32;3.92;;;;;;;19.37;59.36;99503.91;4970789;28;20038;-81
2022/06/08 04:11:34;;;;;;;8.80;4.30;;;;;;;19.39;59.52;99508.06;4953315;28;20363;-81
2022/06/08 04:14:02;;;;;;;5.35;4.13;;;;;;;19.39;59.42;99504.53;4950870;28;20038;-81
2022/06/08 04:16:30;;;;;;;4.68;3.55;;;;;;;19.39;59.50;99508.06;4983718;28;20050;-80
2022/06/08 04:19:01;;;;;;;5.55;3.88;;;;;;;19.39;59.68;99508.06;4998546;28;20662;-81
2022/06/08 04:21:34;;;;;;;5.90;4.18;;;;;;;19.39;59.64;99497.28;4963743;28;20050;-80
2022/06/08 04:24:06;;;;;;;5.88;3.88;;;;;;;19.40;59.46;99501.63;4962761;28;20122;-83
2022/06/08 04:30:40;;;;;;;7.25;3.75;;;;;;;19.40;59.30;99498.09;4921881;28;20037;-83
2022/06/08 04:33:07;;;;;;;6.60;4.18;;;;;;;19.39;59.53;99497.28;4935157;28;20098;-83
2022/06/08 04:35:34;;;;;;;4.95;3.38;;;;;;;19.38;59.75;99509.06;4948498;28;20067;-83
2022/06/08 04:38:02;;;;;;;7.72;3.97;;;;;;;19.42;59.60;99496.88;4965434;28;20035;-85
2022/06/08 04:40:30;;;;;;;5.97;3.92;;;;;;;19.48;59.71;99497.91;4931007;28;20047;-85
2022/06/08 04:42:57;;;;;;;5.45;3.53;;;;;;;19.57;59.67;99491.34;4933857;28;20212;-85
2022/06/08 04:45:26;;;;;;;6.55;4.13;;;;;;;19.69;59.90;99491.59;4945631;28;20444;-86
2022/06/08 04:47:54;;;;;;;6.75;3.95;;;;;;;19.77;59.71;99482.47;4968184;28;20054;-85
2022/06/08 04:50:25;;;;;;;4.32;3.55;;;;;;;19.81;59.58;99484.56;4949865;28;20522;-85
2022/06/08 04:52:53;;;;;;;5.75;3.95;;;;;;;19.80;59.58;99488.31;4949619;28;20383;-85
2022/06/08 04:55:22;;;;;;;8.88;3.85;;;;;;;19.82;59.47;99494.34;4947170;28;20045;-85
2022/06/08 04:57:49;;;;;;;5.13;3.30;;;;;;;19.82;59.36;99502.41;4936629;28;20046;-86
2022/06/08 05:00:21;;;;;;;6.43;3.53;;;;;;;19.79;59.54;99510.06;4944571;28;20558;-85
2022/06/08 05:02:50;;;;;;;6.15;3.40;;;;;;;19.79;59.49;99502.81;4951242;28;20062;-85
2022/06/08 05:05:37;;;;;;;4.20;3.60;;;;;;;19.73;59.65;99509.84;4919719;28;20579;-85
2022/06/08 05:08:08;;;;;;;4.40;3.65;;;;;;;19.76;59.35;99502.38;4932958;28;20050;-85
2022/06/08 05:10:38;;;;;;;4.70;3.50;;;;;;;19.77;59.59;99501.34;4934507;28;20042;-85
2022/06/08 05:13:10;;;;;;;6.88;3.50;;;;;;;19.80;60.00;99495.56;4934514;28;20051;-84
2022/06/08 05:15:40;;;;;;;3.72;3.03;;;;;;;19.84;59.87;99502.19;4975094;28;20219;-85
2022/06/08 05:18:09;;;;;;;4.32;3.22;;;;;;;19.85;59.67;99496.63;4930550;28;20058;-82
2022/06/08 05:20:38;;;;;;;8.02;3.30;;;;;;;19.90;59.93;99499.53;4946194;28;20069;-82
2022/06/08 05:23:11;;;;;;;7.53;3.92;;;;;;;19.95;60.13;99493.53;4935336;28;20618;-85
2022/06/08 05:25:40;;;;;;;5.10;3.28;;;;;;;20.02;59.92;99498.91;4944306;28;20054;-85
2022/06/08 05:28:08;;;;;;;8.48;3.38;;;;;;;20.08;59.96;99495.41;4937867;28;20054;-84
2022/06/08 05:30:43;;;;;;;5.70;3.30;;;;;;;20.12;60.08;99494.78;4947933;28;20054;-84
2022/06/08 05:33:11;;;;;;;6.60;3.42;;;;;;;20.14;59.68;99494.56;4952441;28;20050;-85
2022/06/08 05:35:39;;;;;;;3.72;3.10;;;;;;;20.16;59.77;99479.03;4933643;28;20106;-85
2022/06/08 05:38:08;;;;;;;6.80;3.67;;;;;;;20.19;59.96;99475.91;4929818;28;20039;-82
2022/06/08 05:40:37;;;;;;;4.10;3.20;;;;;;;20.22;59.81;99480.88;4965346;28;20379;-82
2022/06/08 05:43:07;;;;;;;5.20;3.10;;;;;;;20.25;59.80;99476.94;4942003;28;20050;-82
2022/06/08 05:45:35;;;;;;;3.90;3.33;;;;;;;20.29;60.16;99476.31;4933422;28;20047;-82
2022/06/08 05:48:04;;;;;;;5.97;3.72;;;;;;;20.31;60.07;99474.25;4922055;28;20499;-82
2022/06/08 05:50:38;;;;;;;5.45;3.00;;;;;;;20.29;60.19;99473.63;4980969;28;20054;-82
2022/06/08 05:53:08;;;;;;;6.18;3.38;;;;;;;20.36;60.42;99473.63;4965995;28;20054;-82
2022/06/08 05:55:35;;;;;;;4.25;3.17;;;;;;;20.41;60.40;99465.75;4930488;28;20073;-83
2022/06/08 05:58:02;;;;;;;5.35;3.13;;;;;;;20.47;59.96;99464.09;4962243;28;20450;-84
2022/06/08 06:00:35;;;;;;;4.72;3.17;;;;;;;20.48;60.23;99471.97;4966490;28;20101;-83
2022/06/08 06:03:02;;;;;;;6.97;3.58;;;;;;;20.56;60.24;99473.66;4948012;28;20467;-83
2022/06/08 06:05:36;;;;;;;5.25;3.10;;;;;;;20.57;59.69;99467.22;4962086;28;20050;-83
2022/06/08 06:08:08;;;;;;;4.70;3.20;;;;;;;20.58;59.87;99460.75;4968245;28;20401;-84
2022/06/08 06:10:41;;;;;;;6.57;3.03;;;;;;;20.62;59.81;99456.63;4939060;28;20077;-84
2022/06/08 06:13:08;;;;;;;4.20;2.83;;;;;;;20.66;59.89;99460.56;4932380;28;20054;-84
2022/06/08 06:15:57;;;;;;;4.45;3.05;;;;;;;20.74;59.72;99456.81;4923407;28;20114;-84
2022/06/08 06:18:26;;;;;;;4.40;3.13;;;;;;;20.78;59.67;99455.34;4966971;28;20042;-84
2022/06/08 06:21:06;;;;;;;4.80;2.38;;;;;;;20.80;59.76;99455.97;4976631;28;20050;-84
2022/06/08 06:23:55;;;;;;;3.20;2.70;;;;;;;20.89;59.62;99448.44;4946409;28;20457;-84
2022/06/08 06:26:32;;;;;;;5.38;2.75;;;;;;;20.95;59.37;99448.44;4964495;28;20051;-84
2022/06/08 06:29:17;;;;;;;4.00;2.92;;;;;;;21.02;59.80;99449.25;4950795;28;20039;-84
2022/06/08 06:32:04;;;;;;;5.35;2.65;;;;;;;21.01;58.81;99444.06;4953834;28;20494;-84
2022/06/08 06:34:37;;;;;;;4.95;2.55;;;;;;;21.10;59.08;99445.50;4969530;28;20053;-84
2022/06/08 06:37:04;;;;;;;3.83;2.63;;;;;;;21.16;59.00;99450.03;4969145;28;20057;-85
2022/06/08 06:39:32;;;;;;;2.83;2.13;;;;;;;21.20;58.87;99445.03;4967977;28;20050;-85
2022/06/08 06:42:19;;;;;;;3.33;2.20;;;;;;;21.22;58.44;99437.56;4943537;28;20626;-84
2022/06/08 06:44:56;;;;;;;4.18;2.33;;;;;;;21.27;59.02;99439.59;4952469;28;20049;-86
2022/06/08 06:47:34;;;;;;;6.75;2.70;;;;;;;21.32;58.96;99440.63;4948329;28;20506;-85
2022/06/08 06:50:14;;;;;;;5.70;2.63;;;;;;;21.30;58.64;99442.69;4970591;28;20062;-85
2022/06/08 06:52:41;;;;;;;6.38;2.30;;;;;;;21.38;58.67;99436.22;4981144;28;20469;-85
2022/06/08 06:55:26;;;;;;;5.53;2.60;;;;;;;21.44;58.22;99438.09;4949948;28;20055;-85
2022/06/08 06:57:57;;;;;;;8.75;2.90;;;;;;;21.45;58.67;99427.06;4963826;28;20062;-86
2022/06/08 07:00:28;;;;;;;4.30;2.38;;;;;;;21.51;58.64;99429.94;4950112;28;20046;-85
2022/06/08 07:02:58;;;;;;;4.47;2.45;;;;;;;21.52;58.02;99427.00;4951759;28;20150;-86
2022/06/08 07:05:28;;;;;;;2.80;2.05;;;;;;;21.54;57.88;99427.63;4978921;28;20057;-85
2022/06/08 07:07:56;;;;;;;7.85;2.28;;;;;;;21.59;57.64;99421.59;4959587;28;20066;-84
2022/06/08 07:10:24;;;;;;;7.10;2.08;;;;;;;21.62;57.54;99421.13;4957007;28;20105;-84
2022/06/08 07:12:52;;;;;;;5.15;2.00;;;;;;;21.67;57.28;99411.31;4930298;28;20521;-85
2022/06/08 07:15:21;;;;;;;4.15;2.17;;;;;;;21.66;56.70;99406.16;4934529;28;20050;-83
2022/06/08 07:17:50;;;;;;;6.38;1.90;;;;;;;21.70;56.28;99403.84;4935474;28;20051;-83
2022/06/08 07:20:19;;;;;;;3.03;1.70;;;;;;;21.70;55.93;99407.34;4954799;28;20050;-83
2022/06/08 07:22:48;;;;;;;4.20;2.17;;;;;;;21.75;55.72;99401.31;4953178;28;20387;-83
2022/06/08 07:25:16;;;;;;;3.33;1.63;;;;;;;21.71;55.45;99394.69;4971356;28;20042;-83
2022/06/08 07:27:44;;;;;;;6.13;1.77;;;;;;;21.74;55.30;99386.97;4984496;28;20387;-83
2022/06/08 07:30:11;;;;;;;3.42;1.58;;;;;;;21.79;55.55;99383.63;4954548;28;20038;-83
2022/06/08 07:32:38;;;;;;;5.50;2.17;;;;;;;21.81;55.26;99379.66;4954132;28;20054;-83
2022/06/08 07:35:06;;;;;;;4.07;1.67;;;;;;;21.78;55.32;99371.97;4990729;28;20073;-83
2022/06/08 07:37:32;;;;;;;4.38;2.10;;;;;;;21.81;54.77;99373.41;4952151;28;20525;-83
2022/06/08 07:39:59;;;;;;;2.95;2.03;;;;;;;21.83;54.97;99371.28;4958102;28;20108;-83
2022/06/08 07:42:26;;;;;;;4.93;1.60;;;;;;;21.89;54.58;99373.97;4954816;28;20042;-82
2022/06/08 07:44:52;;;;;;;3.25;1.55;;;;;;;21.88;53.81;99372.31;4968542;28;20066;-81
2022/06/08 07:47:19;;;;;;;3.78;1.60;;;;;;;21.89;53.37;99359.63;4979451;28;20522;-83
2022/06/08 07:49:49;;;;;;;4.45;1.90;;;;;;;21.88;53.66;99357.97;4956270;28;20510;-82
2022/06/08 07:52:21;;;;;;;1.95;1.35;;;;;;;21.82;52.54;99359.66;4963951;28;20142;-82
2022/06/08 07:54:48;;;;;;;3.00;1.70;;;;;;;21.83;53.98;99353.22;4967741;28;20046;-82
2022/06/08 07:57:19;;;;;;;4.03;1.63;;;;;;;21.77;53.04;99348.69;4986250;28;20091;-82
2022/06/08 07:59:46;;;;;;;5.75;1.67;;;;;;;21.77;53.20;99345.16;4932489;28;20039;-82
2022/06/08 08:02:14;;;;;;;3.72;1.90;;;;;;;21.78;53.40;99344.09;4935560;28;20505;-83
2022/06/08 08:04:41;;;;;;;7.82;1.60;;;;;;;21.79;53.13;99348.47;4935898;28;20120;-82
2022/06/08 08:07:09;;;;;;;3.20;1.55;;;;;;;21.80;52.89;99339.31;4963987;28;20077;-83
2022/06/08 08:09:37;;;;;;;5.10;1.48;;;;;;;21.81;52.88;99346.38;4940809;28;20043;-85
2022/06/08 08:12:05;;;;;;;6.18;1.70;;;;;;;21.87;52.84;99337.38;4935739;28;20046;-85
2022/06/08 08:14:33;;;;;;;5.45;1.60;;;;;;;21.87;52.91;99349.03;4948507;28;20126;-85
2022/06/08 08:17:03;;;;;;;10.77;2.15;;;;;;;21.93;53.15;99344.63;4956515;28;20053;-85
2022/06/08 08:19:34;;;;;;;5.82;2.00;;;;;;;21.98;52.71;99338.53;4933319;28;20039;-82
2022/06/08 08:22:02;;;;;;;9.60;1.65;;;;;;;22.02;52.71;99339.75;4932810;28;20038;-83
2022/06/08 08:24:31;;;;;;;4.25;1.80;;;;;;;22.06;52.78;99330.97;4948509;28;20138;-83
2022/06/08 08:26:57;;;;;;;4.13;1.48;;;;;;;22.11;52.45;99319.50;4969122;28;20505;-83
2022/06/08 08:29:24;;;;;;;6.57;2.00;;;;;;;22.08;52.72;99331.59;4931531;28;20051;-82
2022/06/08 08:31:51;;;;;;;4.25;1.63;;;;;;;22.06;52.51;99322.88;4966680;28;20391;-82
2022/06/08 08:34:18;;;;;;;5.47;1.52;;;;;;;22.11;52.06;99314.09;4933241;28;20050;-83
2022/06/08 08:36:45;;;;;;;6.00;1.40;;;;;;;22.18;51.61;99308.59;4934578;28;20526;-82
2022/06/08 08:39:12;;;;;;;2.55;1.10;;;;;;;22.16;51.63;99310.69;4954314;28;20054;-83
2022/06/08 08:44:48;;;;;;;3.63;1.73;;;;;;;22.21;51.15;99306.31;4974686;28;20663;-82
2022/06/08 08:47:40;;;;;;;3.55;1.50;;;;;;;22.36;50.67;99307.81;4951499;28;20038;-82
2022/06/08 08:50:30;;;;;;;6.47;1.50;;;;;;;22.43;50.68;99308.56;4953821;28;20065;-82
2022/06/08 08:53:07;;;;;;;4.45;1.50;;;;;;;22.56;50.52;99302.16;4887189;28;20054;-83
2022/06/08 08:55:50;;;;;;;3.85;1.35;;;;;;;22.51;48.64;99287.44;4928446;28;20534;-83
2022/06/08 08:58:24;;;;;;;5.85;1.45;;;;;;;22.60;49.50;99292.56;4928263;28;20054;-83
2022/06/08 09:01:00;;;;;;;3.08;1.10;;;;;;;22.52;48.62;99270.16;4911596;28;20534;-82
2022/06/08 09:03:44;;;;;;;4.32;1.10;;;;;;;22.44;48.50;99280.44;4910645;28;20130;-82
2022/06/08 09:06:16;;;;;;;2.80;1.20;;;;;;;22.62;49.75;99272.34;4939429;28;20132;-83
2022/06/08 09:08:44;;;;;;;;;;;;;;;22.46;48.60;99278.34;4933679;28;21434;-82
2022/06/08 09:11:14;;;;;;;6.13;1.33;;;;;;;22.66;49.20;99273.50;4919576;28;19977;-82
2022/06/08 09:13:56;;;;;;;5.63;1.38;;;;;;;22.59;47.43;99269.22;4922673;28;20058;-83
2022/06/08 09:16:38;;;;;;;;;;;;;;;22.49;46.91;99259.78;4941342;28;20507;-83
2022/06/08 09:19:25;;;;;;;8.98;2.15;;;;;;;22.54;47.99;99264.50;4910118;28;19922;-82
2022/06/08 09:22:01;;;;;;;7.00;1.98;;;;;;;22.63;48.02;99265.03;4926390;28;20059;-83
2022/06/08 09:24:41;;;;;;;4.03;1.33;;;;;;;22.60;47.72;99258.19;4907380;28;20074;-82
2022/06/08 09:27:23;;;;;;;4.00;1.48;;;;;;;22.63;47.98;99254.19;4962127;28;20050;-83
2022/06/08 09:29:56;;;;;;;3.13;1.20;;;;;;;22.67;47.67;99249.97;4974622;28;20050;-87
2022/06/08 09:32:25;;;;;;;;;;;;;;;22.54;46.29;99253.69;4947862;28;20057;-85
2022/06/08 09:34:55;;;;;;;3.25;1.45;;;;;;;22.73;47.35;99249.06;4964818;28;19976;-86
2022/06/08 09:37:26;;;;;;;2.92;1.75;;;;;;;22.82;47.23;99236.03;4959364;28;20055;-86
2022/06/08 09:39:55;;;;;;;5.50;1.70;;;;;;;22.73;47.34;99236.34;4951753;28;20100;-86
2022/06/08 09:42:24;;;;;;;6.57;1.45;;;;;;;22.73;47.24;99235.53;4958777;28;20574;-85
2022/06/08 09:45:02;;;;;;;3.47;1.42;;;;;;;22.76;46.25;99233.19;4963669;28;20042;-84
2022/06/08 09:53:39;;;;;;;4.47;1.40;;;;;;;22.79;46.82;99223.78;4934892;28;20038;-87
2022/06/08 09:56:49;;;;;;;5.25;1.90;;;;;;;22.82;46.48;99214.38;4933171;28;20399;-86
2022/06/08 09:59:31;;;;;;;4.20;1.30;;;;;;;22.85;46.15;99211.22;4917202;28;20054;-87
2022/06/08 10:02:15;;;;;;;5.55;1.58;;;;;;;22.81;46.24;99213.56;4997112;28;20045;-84
2022/06/08 10:05:18;;;;;;;3.08;1.17;;;;;;;22.83;45.70;99207.91;4977803;28;20041;-83
2022/06/08 10:07:50;;;;;;;4.60;1.50;;;;;;;22.86;46.27;99213.69;4922118;28;20054;-84
2022/06/08 10:10:29;;;;;;;3.97;1.33;;;;;;;22.86;45.64;99207.44;4960466;28;20047;-85
2022/06/08 10:13:01;;;;;;;4.85;1.50;;;;;;;22.86;45.50;99196.63;4964964;28;20118;-84
2022/06/08 10:15:30;;;;;;;3.78;1.30;;;;;;;22.86;46.04;99200.16;4916796;28;20621;-85
2022/06/08 10:18:17;;;;;;;5.07;1.20;;;;;;;22.86;45.13;99197.44;4946259;28;20406;-85
2022/06/08 10:20:48;;;;;;;7.75;1.40;;;;;;;22.96;44.98;99196.88;4933636;28;20161;-86
2022/06/08 10:23:39;;;;;;;3.47;1.20;;;;;;;22.93;43.99;99200.88;4957092;28;20528;-85
2022/06/08 10:26:18;;;;;;;4.25;1.48;;;;;;;22.98;44.33;99194.00;4961149;28;20038;-85
2022/06/08 10:28:48;;;;;;;6.38;1.38;;;;;;;23.04;45.57;99193.88;4948729;28;20105;-83
2022/06/08 10:31:31;;;;;;;5.32;1.52;;;;;;;23.01;44.15;99193.50;4966070;28;20467;-82
2022/06/08 10:34:15;;;;;;;3.00;1.50;;;;;;;23.03;43.82;99189.53;4974272;28;20104;-82
2022/06/08 10:36:49;;;;;;;5.10;1.40;;;;;;;23.11;44.37;99183.75;4948606;28;20413;-82
2022/06/08 10:39:16;;;;;;;3.67;1.30;;;;;;;23.12;44.77;99185.41;4965994;28;20398;-84
2022/06/08 10:44:36;;;;;;;3.95;1.58;;;;;;;23.12;43.70;99181.88;4932490;28;20046;-85
2022/06/08 10:47:12;;;;;;;4.10;1.40;;;;;;;23.12;43.16;99181.88;4954684;28;20121;-85
2022/06/08 10:49:38;;;;;;;4.53;1.58;;;;;;;23.22;44.03;99179.41;5001951;28;20108;-85
2022/06/08 10:52:17;;;;;;;4.72;1.30;;;;;;;23.18;43.70;99180.94;4970946;28;20043;-85
2022/06/08 10:54:57;;;;;;;2.33;1.13;;;;;;;23.20;44.03;99167.97;4984668;28;20046;-85
2022/06/08 10:57:42;;;;;;;4.40;1.30;;;;;;;23.17;43.98;99165.75;4949494;28;20041;-85
2022/06/08 11:00:18;;;;;;;5.07;1.13;;;;;;;23.11;43.48;99155.84;4959562;28;20125;-84
2022/06/08 11:02:58;;;;;;;5.88;1.60;;;;;;;23.14;43.79;99158.91;4999346;28;20078;-85
2022/06/08 11:05:28;;;;;;;3.50;1.63;;;;;;;23.18;44.01;99164.69;4994376;28;20055;-84
2022/06/08 11:07:58;;;;;;;7.32;1.70;;;;;;;23.15;43.89;99149.75;5003498;28;20046;-85
2022/06/08 11:10:44;;;;;;;5.50;1.40;;;;;;;23.08;43.54;99145.50;4979186;28;20043;-85
2022/06/08 11:13:23;;;;;;;2.85;1.48;;;;;;;23.09;41.65;99144.44;4985460;28;20490;-85
2022/06/08 11:15:52;;;;;;;5.82;1.42;;;;;;;23.13;42.84;99140.19;4956519;28;20124;-85
2022/06/08 11:18:31;;;;;;;3.42;1.00;;;;;;;23.07;42.78;99146.53;4971732;28;20093;-84
2022/06/08 11:21:12;;;;;;;4.90;1.40;;;;;;;23.06;41.68;99129.47;4962483;28;20050;-84
2022/06/08 11:23:43;;;;;;;3.15;1.30;;;;;;;23.14;42.93;99121.00;4980077;28;20047;-84
2022/06/08 11:26:24;;;;;;;3.40;1.60;;;;;;;23.15;42.99;99119.09;4953563;28;20050;-84
2022/06/08 11:28:50;;;;;;;3.25;1.52;;;;;;;23.17;42.81;99115.09;4927561;28;20050;-85
2022/06/08 11:31:29;;;;;;;3.95;1.35;;;;;;;23.19;41.89;99120.28;4966799;28;20035;-85
2022/06/08 11:34:20;;;;;;;3.08;1.00;;;;;;;23.13;41.52;99111.22;4974851;28;20042;-84
2022/06/08 11:37:02;;;;;;;3.05;1.13;;;;;;;23.21;41.43;99118.19;4950489;28;20045;-84
2022/06/08 11:39:35;;;;;;;4.55;1.40;;;;;;;23.30;42.03;99113.22;4974606;28;20122;-86
2022/06/08 11:42:01;;;;;;;;;;;;;;;23.21;42.22;99110.06;4976246;28;20043;-86
2022/06/08 11:44:34;;;;;;;4.93;1.33;;;;;;;23.38;41.20;99108.28;4964221;28;19922;-87
2022/06/08 11:47:03;;;;;;;1.38;1.10;;;;;;;23.43;41.28;99106.72;4956112;28;20476;-86
2022/06/08 11:49:38;;;;;;;2.25;1.23;;;;;;;23.42;41.83;99111.31;4968723;28;20051;-83
2022/06/08 11:52:23;;;;;;;4.03;1.15;;;;;;;23.45;41.18;99107.31;4947432;28;20114;-82
2022/06/08 11:55:00;;;;;;;3.45;1.20;;;;;;;23.46;40.60;99101.66;4974805;28;20119;-82
2022/06/08 11:57:27;;;;;;;5.13;1.42;;;;;;;23.50;41.64;99110.13;4949937;28;20101;-82
2022/06/08 11:59:56;;;;;;;2.33;1.23;;;;;;;23.54;41.80;99095.88;4971725;28;20052;-85
2022/06/08 12:02:26;;;;;;;4.00;1.33;;;;;;;23.59;41.57;99095.16;4948823;28;20066;-85
2022/06/08 12:04:55;;;;;;;4.50;1.27;;;;;;;23.65;41.46;99096.91;4944488;28;20263;-84
2022/06/08 12:07:45;;;;;;;2.92;1.30;;;;;;;23.64;40.68;99097.19;4972420;28;20126;-85
2022/06/08 12:10:20;;;;;;;5.72;1.65;;;;;;;23.62;40.51;99094.69;4994743;28;20050;-84
2022/06/08 12:12:48;;;;;;;3.20;1.00;;;;;;;23.66;41.11;99095.88;4953867;28;20058;-85
2022/06/08 12:15:30;;;;;;;6.43;1.45;;;;;;;23.56;41.46;99092.91;4963423;28;20097;-84
2022/06/08 12:18:16;;;;;;;3.85;1.40;;;;;;;23.55;40.99;99092.09;4944109;28;20038;-84
2022/06/08 12:20:43;;;;;;;2.40;1.25;;;;;;;23.58;41.51;99082.66;4951078;28;20043;-87